createdAt,value
2022-09-06T00:02:21.712Z,17.10
2022-09-06T00:05:27.149Z,16.42
2022-09-06T00:08:32.128Z,15.72
2022-09-06T00:11:38.480Z,16.00
2022-09-06T00:14:44.804Z,15.83
2022-09-06T00:17:52.411Z,16.27
2022-09-06T00:20:58.998Z,16.97
2022-09-06T00:24:04.359Z,16.30
2022-09-06T00:27:10.033Z,14.28
2022-09-06T00:30:15.455Z,14.33
2022-09-06T00:33:22.225Z,15.20
2022-09-06T00:36:28.320Z,15.20
2022-09-06T00:39:34.439Z,15.05
2022-09-06T00:42:40.322Z,15.48
2022-09-06T00:45:47.950Z,13.60
2022-09-06T00:48:52.957Z,12.85
2022-09-06T00:51:58.942Z,13.00
2022-09-06T00:55:04.895Z,14.23
2022-09-06T00:58:10.495Z,12.88
2022-09-06T01:01:17.023Z,13.15
2022-09-06T01:04:22.194Z,14.07
2022-09-06T01:07:54.476Z,13.53
2022-09-06T01:11:27.088Z,13.18
2022-09-06T01:15:12.641Z,14.45
2022-09-06T01:18:37.046Z,15.35
2022-09-06T01:21:53.760Z,15.95
2022-09-06T01:25:19.684Z,14.50
2022-09-06T01:28:50.162Z,17.02
2022-09-06T01:35:15.238Z,12.37
2022-09-06T01:38:21.083Z,12.47
2022-09-06T01:41:26.271Z,13.25
2022-09-06T01:44:32.183Z,14.87
2022-09-06T01:48:09.541Z,14.38
2022-09-06T01:51:19.497Z,13.48
2022-09-06T01:54:52.047Z,14.98
2022-09-06T01:58:39.843Z,14.53
2022-09-06T02:02:00.266Z,13.58
2022-09-06T02:05:18.943Z,13.08
2022-09-06T02:08:16.128Z,13.00
2022-09-06T02:11:22.709Z,13.50
2022-09-06T02:14:39.674Z,12.30
2022-09-06T02:17:52.596Z,10.45
2022-09-06T02:21:01.691Z,10.30
2022-09-06T02:24:07.103Z,10.70
2022-09-06T02:27:11.808Z,9.90
2022-09-06T02:30:16.706Z,13.43
2022-09-06T02:33:28.450Z,13.60
2022-09-06T02:36:34.596Z,14.25
2022-09-06T02:39:39.768Z,14.28
2022-09-06T02:42:46.343Z,15.68
2022-09-06T02:45:51.511Z,14.90
2022-09-06T02:48:57.315Z,17.37
2022-09-06T02:52:02.819Z,17.52
2022-09-06T02:55:09.591Z,18.73
2022-09-06T02:58:14.852Z,18.55
2022-09-06T03:01:20.819Z,16.67
2022-09-06T03:04:27.941Z,14.25
2022-09-06T03:07:33.442Z,15.23
2022-09-06T03:10:38.300Z,16.15
2022-09-06T03:13:44.097Z,16.10
2022-09-06T03:16:50.108Z,15.32
2022-09-06T03:19:56.220Z,15.65
2022-09-06T03:23:03.432Z,15.32
2022-09-06T03:26:09.578Z,16.70
2022-09-06T03:29:08.493Z,15.90
2022-09-06T03:32:01.716Z,18.52
2022-09-06T03:35:06.975Z,17.90
2022-09-06T03:38:14.861Z,16.97
2022-09-06T03:41:20.068Z,16.07
2022-09-06T03:44:26.585Z,14.18
2022-09-06T03:47:33.267Z,13.45
2022-09-06T03:50:39.736Z,14.30
2022-09-06T03:53:45.731Z,13.22
2022-09-06T03:56:51.882Z,13.00
2022-09-06T03:59:57.188Z,15.30
2022-09-06T04:03:06.775Z,15.08
2022-09-06T04:06:12.612Z,23.10
2022-09-06T04:09:18.555Z,15.58
2022-09-06T04:12:25.544Z,12.18
2022-09-06T04:15:31.391Z,12.20
2022-09-06T04:18:37.870Z,11.12
2022-09-06T04:21:43.402Z,11.08
2022-09-06T04:24:48.658Z,9.58
2022-09-06T04:27:56.540Z,10.38
2022-09-06T04:31:13.424Z,9.63
2022-09-06T04:34:19.058Z,9.68
2022-09-06T04:37:26.925Z,8.95
2022-09-06T04:40:32.671Z,10.00
2022-09-06T04:43:38.215Z,9.30
2022-09-06T04:46:47.473Z,9.95
2022-09-06T04:49:52.954Z,10.88
2022-09-06T04:52:59.347Z,12.90
2022-09-06T04:56:05.019Z,12.73
2022-09-06T04:59:09.834Z,11.20
2022-09-06T05:02:15.137Z,12.95
2022-09-06T05:05:19.737Z,13.55
2022-09-06T05:08:25.394Z,12.70
2022-09-06T05:11:32.064Z,13.98
2022-09-06T05:14:37.882Z,14.73
2022-09-06T05:17:44.290Z,11.90
2022-09-06T05:20:49.541Z,11.95
2022-09-06T05:23:58.493Z,11.33
2022-09-06T05:27:03.166Z,10.85
2022-09-06T05:30:08.590Z,10.72
2022-09-06T05:33:14.995Z,12.13
2022-09-06T05:36:21.723Z,11.78
2022-09-06T05:39:28.331Z,11.93
2022-09-06T05:42:36.756Z,10.82
2022-09-06T05:45:43.205Z,11.80
2022-09-06T05:48:49.292Z,12.35
2022-09-06T05:51:56.131Z,11.15
2022-09-06T05:55:02.415Z,10.85
2022-09-06T05:58:08.590Z,9.90
2022-09-06T06:01:37.314Z,9.50
2022-09-06T06:04:45.561Z,9.13
2022-09-06T06:07:54.131Z,5.30
2022-09-06T06:11:01.239Z,4.62
2022-09-06T06:14:07.503Z,4.65
2022-09-06T06:17:07.792Z,4.30
2022-09-06T06:20:13.953Z,3.80
2022-09-06T06:23:19.147Z,3.75
2022-09-06T06:26:28.051Z,2.65
2022-09-06T06:32:41.158Z,2.98
2022-09-06T06:35:47.143Z,3.10
2022-09-06T06:38:53.827Z,2.30
2022-09-06T06:41:58.606Z,2.08
2022-09-06T06:45:05.632Z,3.08
2022-09-06T06:48:04.727Z,2.10
2022-09-06T06:51:10.264Z,2.85
2022-09-06T06:54:08.954Z,2.20
2022-09-06T06:57:16.770Z,2.15
2022-09-06T07:00:28.367Z,2.15
2022-09-06T07:03:36.084Z,1.70
2022-09-06T07:12:59.920Z,1.02
2022-09-06T07:16:06.723Z,1.37
2022-09-06T07:22:23.704Z,1.92
2022-09-06T07:25:29.167Z,1.20
2022-09-06T07:28:34.521Z,1.17
2022-09-06T07:34:49.117Z,1.32
2022-09-06T07:37:55.215Z,1.35
2022-09-06T07:41:14.763Z,1.00
2022-09-06T07:44:20.264Z,1.25
2022-09-06T07:50:50.189Z,0.90
2022-09-06T07:53:43.881Z,1.10
2022-09-06T07:56:49.519Z,1.20
2022-09-06T07:59:55.787Z,1.02
2022-09-06T08:03:02.609Z,2.17
2022-09-06T08:06:08.814Z,1.52
2022-09-06T08:09:15.551Z,1.20
2022-09-06T08:12:46.591Z,0.98
2022-09-06T08:15:41.751Z,0.80
2022-09-06T08:18:50.831Z,0.82
2022-09-06T08:21:55.587Z,0.80
2022-09-06T08:25:01.888Z,0.90
2022-09-06T08:28:11.031Z,1.30
2022-09-06T08:31:25.162Z,1.00
2022-09-06T08:34:32.033Z,1.00
2022-09-06T08:37:37.738Z,0.90
2022-09-06T08:40:43.381Z,0.70
2022-09-06T08:43:49.764Z,0.90
2022-09-06T08:47:11.257Z,1.10
2022-09-06T08:50:20.704Z,0.80
2022-09-06T08:53:31.930Z,1.10
2022-09-06T08:56:48.944Z,1.37
2022-09-06T08:59:56.192Z,1.02
2022-09-06T09:03:06.354Z,0.70
2022-09-06T09:06:12.226Z,0.82
2022-09-06T09:09:21.600Z,1.70
2022-09-06T09:12:27.175Z,1.25
2022-09-06T09:15:40.054Z,1.80
2022-09-06T09:18:46.425Z,2.00
2022-09-06T09:21:54.219Z,1.60
2022-09-06T09:24:54.794Z,1.32
2022-09-06T09:28:03.294Z,1.50
2022-09-06T09:31:10.278Z,1.65
2022-09-06T09:34:15.767Z,1.05
2022-09-06T09:37:46.369Z,1.42
2022-09-06T09:40:50.836Z,1.02
2022-09-06T09:43:57.241Z,0.70
2022-09-06T09:47:03.468Z,1.07
2022-09-06T09:50:11.172Z,1.40
2022-09-06T09:53:27.830Z,1.75
2022-09-06T09:56:32.831Z,1.37
2022-09-06T09:59:56.697Z,1.62
2022-09-06T10:03:01.590Z,1.10
2022-09-06T10:09:39.505Z,1.67
2022-09-06T10:12:56.470Z,1.80
2022-09-06T10:16:03.716Z,0.95
2022-09-06T10:19:09.909Z,0.95
2022-09-06T10:22:19.635Z,0.90
2022-09-06T10:25:30.810Z,0.80
2022-09-06T10:28:55.744Z,1.10
2022-09-06T10:32:31.047Z,1.00
2022-09-06T10:35:40.128Z,1.10
2022-09-06T10:38:42.089Z,0.75
2022-09-06T10:42:22.333Z,0.90
2022-09-06T10:45:53.784Z,1.15
2022-09-06T10:49:02.788Z,1.10
2022-09-06T10:52:13.979Z,0.80
2022-09-06T10:55:20.251Z,0.50
2022-09-06T10:58:25.899Z,0.70
2022-09-06T11:01:34.719Z,0.90
2022-09-06T11:11:07.245Z,0.90
2022-09-06T11:14:13.237Z,0.85
2022-09-06T11:17:23.552Z,0.90
2022-09-06T11:24:17.472Z,0.68
2022-09-06T11:27:41.700Z,1.32
2022-09-06T11:30:34.576Z,1.45
2022-09-06T11:33:47.664Z,0.93
2022-09-06T11:36:59.891Z,0.90
2022-09-06T11:40:27.698Z,0.95
2022-09-06T11:43:52.942Z,1.10
2022-09-06T11:47:04.167Z,0.90
2022-09-06T11:50:09.764Z,1.07
2022-09-06T11:53:29.671Z,1.27
2022-09-06T11:57:01.631Z,1.10
2022-09-06T12:00:14.333Z,1.07
2022-09-06T12:06:30.540Z,0.75
2022-09-06T12:09:52.435Z,1.20
2022-09-06T12:13:04.950Z,0.90
2022-09-06T12:16:13.061Z,0.80
2022-09-06T12:19:18.862Z,1.65
2022-09-06T12:22:47.197Z,1.35
2022-09-06T12:25:56.562Z,1.35
2022-09-06T12:29:05.157Z,1.85
2022-09-06T12:32:12.501Z,2.05
2022-09-06T12:38:39.479Z,1.23
2022-09-06T12:41:48.533Z,1.10
2022-09-06T12:44:57.411Z,1.15
2022-09-06T12:48:02.636Z,1.12
2022-09-06T12:51:24.980Z,1.30
2022-09-06T12:54:39.243Z,1.20
2022-09-06T12:57:44.663Z,0.80
2022-09-06T13:00:58.206Z,0.80
2022-09-06T13:04:16.135Z,1.00
2022-09-06T13:07:24.305Z,1.20
2022-09-06T13:10:30.846Z,1.22
2022-09-06T13:13:38.508Z,0.95
2022-09-06T13:16:49.839Z,0.70
2022-09-06T13:19:55.919Z,1.00
2022-09-06T13:23:03.913Z,0.95
2022-09-06T13:26:09.509Z,0.80
2022-09-06T13:29:33.501Z,0.78
2022-09-06T13:32:38.847Z,0.85
2022-09-06T13:35:52.667Z,1.00
2022-09-06T13:38:58.727Z,0.60
2022-09-06T13:42:09.066Z,0.85
2022-09-06T13:45:38.285Z,1.02
2022-09-06T13:48:46.546Z,1.30
2022-09-06T13:51:53.505Z,1.30
2022-09-06T13:54:59.360Z,1.40
2022-09-06T13:58:04.477Z,1.37
2022-09-06T14:01:10.255Z,1.60
2022-09-06T14:04:17.919Z,1.07
2022-09-06T14:07:24.081Z,1.02
2022-09-06T14:10:30.434Z,0.93
2022-09-06T14:13:35.442Z,0.65
2022-09-06T14:16:41.179Z,0.98
2022-09-06T14:19:46.946Z,1.30
2022-09-06T14:22:52.484Z,1.02
2022-09-06T14:25:57.562Z,1.10
2022-09-06T14:29:04.043Z,1.20
2022-09-06T14:32:10.177Z,1.37
2022-09-06T14:35:16.228Z,1.52
2022-09-06T14:38:22.277Z,1.22
2022-09-06T14:41:27.838Z,1.02
2022-09-06T14:44:33.491Z,1.00
2022-09-06T14:47:40.434Z,1.17
2022-09-06T14:50:45.625Z,1.00
2022-09-06T14:53:52.195Z,1.05
2022-09-06T14:56:58.554Z,1.52
2022-09-06T15:00:05.728Z,1.10
2022-09-06T15:03:11.093Z,1.00
2022-09-06T15:06:18.524Z,1.15
2022-09-06T15:09:24.278Z,1.00
2022-09-06T15:12:29.659Z,1.32
2022-09-06T15:15:35.323Z,0.90
2022-09-06T15:18:41.615Z,0.93
2022-09-06T15:21:47.238Z,1.07
2022-09-06T15:24:53.179Z,0.90
2022-09-06T15:27:58.816Z,0.90
2022-09-06T15:31:04.832Z,1.07
2022-09-06T15:34:11.007Z,0.78
2022-09-06T15:37:20.651Z,0.70
2022-09-06T15:40:29.276Z,0.70
2022-09-06T15:43:36.296Z,0.82
2022-09-06T15:46:55.151Z,0.78
2022-09-06T15:50:04.202Z,0.68
2022-09-06T15:53:03.319Z,1.07
2022-09-06T15:56:14.107Z,0.80
2022-09-06T15:59:19.463Z,0.93
2022-09-06T16:02:25.197Z,0.95
2022-09-06T16:08:38.339Z,1.32
2022-09-06T16:11:44.511Z,1.27
2022-09-06T16:14:49.138Z,1.30
2022-09-06T16:17:55.326Z,1.60
2022-09-06T16:21:00.988Z,1.77
2022-09-06T16:24:17.540Z,1.30
2022-09-06T16:27:23.355Z,1.60
2022-09-06T16:30:28.809Z,1.60
2022-09-06T16:33:33.869Z,1.60
2022-09-06T16:36:40.544Z,2.55
2022-09-06T16:39:45.891Z,1.67
2022-09-06T16:42:52.384Z,1.80
2022-09-06T16:45:58.006Z,2.25
2022-09-06T16:49:12.575Z,1.37
2022-09-06T16:52:18.996Z,1.42
2022-09-06T16:55:24.064Z,1.32
2022-09-06T16:58:30.013Z,1.25
2022-09-06T17:01:36.809Z,1.10
2022-09-06T17:04:42.529Z,0.90
2022-09-06T17:07:47.623Z,1.15
2022-09-06T17:10:54.013Z,1.20
2022-09-06T17:14:02.523Z,1.17
2022-09-06T17:17:13.190Z,1.20
2022-09-06T17:20:12.635Z,1.30
2022-09-06T17:23:19.754Z,1.22
2022-09-06T17:26:24.342Z,0.93
2022-09-06T17:29:31.905Z,0.95
2022-09-06T17:32:38.681Z,1.07
2022-09-06T17:35:44.598Z,1.00
2022-09-06T17:38:53.293Z,1.40
2022-09-06T17:42:02.817Z,1.05
2022-09-06T17:45:09.078Z,1.12
2022-09-06T17:48:15.779Z,1.05
2022-09-06T17:51:22.827Z,0.90
2022-09-06T17:54:27.826Z,1.00
2022-09-06T17:57:32.893Z,1.05
2022-09-06T18:00:38.500Z,1.10
2022-09-06T18:03:44.892Z,0.95
2022-09-06T18:06:50.664Z,1.20
2022-09-06T18:09:57.522Z,1.30
2022-09-06T18:13:03.617Z,1.40
2022-09-06T18:16:10.471Z,1.12
2022-09-06T18:19:17.182Z,1.22
2022-09-06T18:22:23.093Z,1.10
2022-09-06T18:25:29.346Z,1.40
2022-09-06T18:28:34.559Z,1.50
2022-09-06T18:31:40.908Z,1.92
2022-09-06T18:34:47.530Z,1.70
2022-09-06T18:37:54.327Z,1.40
2022-09-06T18:41:15.157Z,1.57
2022-09-06T18:44:20.912Z,1.67
2022-09-06T18:47:26.510Z,1.32
2022-09-06T18:50:32.350Z,1.25
2022-09-06T18:53:42.653Z,1.52
2022-09-06T18:56:44.713Z,1.22
2022-09-06T18:59:49.895Z,1.40
2022-09-06T19:02:56.860Z,1.55
2022-09-06T19:06:04.965Z,1.52
2022-09-06T19:09:18.303Z,1.77
2022-09-06T19:12:24.343Z,1.57
2022-09-06T19:15:31.382Z,1.60
2022-09-06T19:18:39.099Z,1.47
2022-09-06T19:21:46.128Z,1.45
2022-09-06T19:24:51.730Z,1.50
2022-09-06T19:27:57.541Z,1.70
2022-09-06T19:31:05.734Z,1.65
2022-09-06T19:34:11.529Z,1.75
2022-09-06T19:37:18.506Z,1.80
2022-09-06T19:40:24.988Z,1.92
2022-09-06T19:43:30.728Z,1.67
2022-09-06T19:46:35.917Z,1.47
2022-09-06T19:49:42.353Z,1.52
2022-09-06T19:52:48.071Z,2.20
2022-09-06T19:55:54.447Z,2.05
2022-09-06T19:59:00.415Z,2.30
2022-09-06T20:02:05.780Z,2.45
2022-09-06T20:05:11.113Z,2.27
2022-09-06T20:08:16.152Z,2.98
2022-09-06T20:11:23.915Z,2.17
2022-09-06T20:14:31.377Z,2.90
2022-09-06T20:17:36.838Z,2.75
2022-09-06T20:20:41.939Z,2.40
2022-09-06T20:23:48.118Z,2.30
2022-09-06T20:26:53.031Z,2.47
2022-09-06T20:29:59.032Z,2.35
2022-09-06T20:33:04.642Z,2.60
2022-09-06T20:36:14.474Z,2.60
2022-09-06T20:39:20.094Z,1.90
2022-09-06T20:42:26.207Z,2.20
2022-09-06T20:45:26.124Z,2.00
2022-09-06T20:48:31.448Z,2.50
2022-09-06T20:51:37.526Z,1.90
2022-09-06T20:54:42.195Z,2.60
2022-09-06T20:57:47.729Z,2.10
2022-09-06T21:00:54.640Z,1.70
2022-09-06T21:04:01.269Z,1.95
2022-09-06T21:07:06.780Z,2.05
2022-09-06T21:10:12.890Z,1.80
2022-09-06T21:13:19.222Z,1.80
2022-09-06T21:16:25.719Z,2.22
2022-09-06T21:19:32.071Z,1.80
2022-09-06T21:22:37.678Z,1.92
2022-09-06T21:25:43.788Z,1.47
2022-09-06T21:28:46.282Z,1.67
2022-09-06T21:31:42.685Z,2.02
2022-09-06T21:34:48.687Z,1.57
2022-09-06T21:37:54.252Z,1.60
2022-09-06T21:40:53.466Z,2.05
2022-09-06T21:44:01.361Z,1.72
2022-09-06T21:47:06.331Z,1.90
2022-09-06T21:50:11.455Z,1.82
2022-09-06T21:53:18.613Z,2.00
2022-09-06T21:56:25.759Z,2.20
2022-09-06T21:59:32.378Z,2.10
2022-09-06T22:02:37.818Z,1.92
2022-09-06T22:05:36.534Z,2.30
2022-09-06T22:08:42.120Z,2.37
2022-09-06T22:11:48.026Z,3.25
2022-09-06T22:14:54.402Z,2.75
2022-09-06T22:18:00.317Z,3.10
2022-09-06T22:21:05.725Z,2.77
2022-09-06T22:24:17.663Z,3.30
2022-09-06T22:27:23.422Z,3.27
2022-09-06T22:30:28.458Z,2.87
2022-09-06T22:33:34.451Z,3.05
2022-09-06T22:36:39.372Z,3.77
2022-09-06T22:39:43.607Z,3.80
2022-09-06T22:42:49.782Z,3.42
2022-09-06T22:45:55.445Z,4.17
2022-09-06T22:49:02.780Z,4.42
2022-09-06T22:52:08.288Z,5.85
2022-09-06T22:55:13.652Z,4.80
2022-09-06T22:58:19.233Z,4.92
2022-09-06T23:01:29.676Z,5.05
2022-09-06T23:04:36.479Z,5.50
2022-09-06T23:07:41.687Z,5.97
2022-09-06T23:10:47.114Z,4.97
2022-09-06T23:13:53.680Z,5.80
2022-09-06T23:17:00.040Z,6.20
2022-09-06T23:19:58.008Z,6.58
2022-09-06T23:23:07.508Z,5.60
2022-09-06T23:26:20.020Z,6.28
2022-09-06T23:29:25.272Z,5.78
2022-09-06T23:32:32.755Z,6.25
2022-09-06T23:35:38.995Z,6.37
2022-09-06T23:38:45.354Z,5.92
2022-09-06T23:41:50.867Z,7.50
2022-09-06T23:44:59.115Z,6.70
2022-09-06T23:48:04.708Z,6.15
2022-09-06T23:51:10.357Z,5.65
2022-09-06T23:54:15.733Z,6.55
2022-09-06T23:57:21.459Z,6.42
